Skip Navigation Links Skip Navigation Links

Current Weather

Zamperini Field, Torrance, Calif.

For information only: do not use for flight planning or navigation.
Latest weather
Observation time Thursday, December 2, 2021 7:47 PM PST
Local time Friday, December 3, 2021 1:45 AM PST
Flight conditions Marginal Visual Meteorological Conditions
Winds
Wind direction West-Southwest (240°)
Wind speed 7 mph
Visibility 5 mi.
Present weather haze
Sky condition
Ceiling 1,100 ft. overcast
Cloud layer overcast 1,100 ft.
Temperature 54°F
Dewpoint 52°F
Altimeter 30.12 in.Hg
Derived measurements
Relative humidity 94%
Density altitude -297 ft.
METAR KTOA 030347Z 24006KT 5SM HZ OVC011 12/11 A3012

Settings

Location code

InnerDrive.Weather 4.0.6770.0 Release CLR 4.0.30319.42000
Copyright ©2018 Inner Drive Technology. All rights reserved. Portions Copyright ©1986-2018 David Braverman.

Find weather

Site navigation


Skip Navigation Links

Place info

Page info

PayPal - The safer, easier way to pay online!

Return home.

Copyright ©2021 Inner Drive Technology. Purveyors of fine, hand-crafted computer software. Page printed 2021-12-03T09:45:03 UTC.